sensor_id;sensor_type;location;lat;lon;timestamp;P1;durP1;ratioP1;P2;durP2;ratioP2
11839;SDS011;5979;50.800;4.904;2022-08-01T00:01:23;1.30;;;1.30;;
11839;SDS011;5979;50.800;4.904;2022-08-01T00:03:49;2.22;;;1.70;;
11839;SDS011;5979;50.800;4.904;2022-08-01T00:06:15;3.22;;;1.30;;
11839;SDS011;5979;50.800;4.904;2022-08-01T00:08:40;1.40;;;1.30;;
11839;SDS011;5979;50.800;4.904;2022-08-01T00:11:06;1.58;;;1.50;;
11839;SDS011;5979;50.800;4.904;2022-08-01T00:13:34;2.42;;;1.65;;
11839;SDS011;5979;50.800;4.904;2022-08-01T00:15:59;1.50;;;1.40;;
11839;SDS011;5979;50.800;4.904;2022-08-01T00:18:25;1.60;;;1.50;;
11839;SDS011;5979;50.800;4.904;2022-08-01T00:20:51;2.30;;;1.75;;
11839;SDS011;5979;50.800;4.904;2022-08-01T00:23:16;1.85;;;1.50;;
11839;SDS011;5979;50.800;4.904;2022-08-01T00:25:42;2.72;;;1.42;;
11839;SDS011;5979;50.800;4.904;2022-08-01T00:28:08;1.50;;;1.40;;
11839;SDS011;5979;50.800;4.904;2022-08-01T00:30:34;1.50;;;1.40;;
11839;SDS011;5979;50.800;4.904;2022-08-01T00:33:00;1.50;;;1.40;;
11839;SDS011;5979;50.800;4.904;2022-08-01T00:35:26;2.78;;;1.55;;
11839;SDS011;5979;50.800;4.904;2022-08-01T00:37:52;2.47;;;1.60;;
11839;SDS011;5979;50.800;4.904;2022-08-01T00:40:17;1.63;;;1.42;;
11839;SDS011;5979;50.800;4.904;2022-08-01T00:42:43;1.65;;;1.55;;
11839;SDS011;5979;50.800;4.904;2022-08-01T00:45:09;1.70;;;1.60;;
11839;SDS011;5979;50.800;4.904;2022-08-01T00:47:36;1.92;;;1.83;;
11839;SDS011;5979;50.800;4.904;2022-08-01T00:50:03;2.83;;;1.60;;
11839;SDS011;5979;50.800;4.904;2022-08-01T00:52:30;3.08;;;1.77;;
11839;SDS011;5979;50.800;4.904;2022-08-01T00:54:56;1.63;;;1.52;;
11839;SDS011;5979;50.800;4.904;2022-08-01T00:57:21;2.40;;;1.70;;
11839;SDS011;5979;50.800;4.904;2022-08-01T00:59:47;2.75;;;1.90;;
11839;SDS011;5979;50.800;4.904;2022-08-01T01:02:13;1.98;;;1.88;;
11839;SDS011;5979;50.800;4.904;2022-08-01T01:04:38;2.45;;;1.85;;
11839;SDS011;5979;50.800;4.904;2022-08-01T01:07:17;1.80;;;1.70;;
11839;SDS011;5979;50.800;4.904;2022-08-01T01:10:04;2.10;;;2.00;;
11839;SDS011;5979;50.800;4.904;2022-08-01T01:12:38;2.58;;;2.38;;
11839;SDS011;5979;50.800;4.904;2022-08-01T01:20:31;1.75;;;1.65;;
11839;SDS011;5979;50.800;4.904;2022-08-01T01:25:40;2.40;;;2.20;;
11839;SDS011;5979;50.800;4.904;2022-08-01T01:31:03;3.30;;;2.10;;
11839;SDS011;5979;50.800;4.904;2022-08-01T01:33:31;2.60;;;2.40;;
11839;SDS011;5979;50.800;4.904;2022-08-01T01:36:00;2.92;;;2.58;;
11839;SDS011;5979;50.800;4.904;2022-08-01T01:38:32;2.70;;;2.50;;
11839;SDS011;5979;50.800;4.904;2022-08-01T01:41:02;2.38;;;2.22;;
11839;SDS011;5979;50.800;4.904;2022-08-01T01:43:29;2.78;;;2.58;;
11839;SDS011;5979;50.800;4.904;2022-08-01T01:45:57;3.05;;;2.50;;
11839;SDS011;5979;50.800;4.904;2022-08-01T01:48:23;2.72;;;2.63;;
11839;SDS011;5979;50.800;4.904;2022-08-01T01:50:50;2.83;;;2.63;;
11839;SDS011;5979;50.800;4.904;2022-08-01T01:53:18;3.03;;;2.70;;
11839;SDS011;5979;50.800;4.904;2022-08-01T01:55:46;3.75;;;2.78;;
11839;SDS011;5979;50.800;4.904;2022-08-01T01:58:14;2.38;;;2.20;;
11839;SDS011;5979;50.800;4.904;2022-08-01T02:00:42;2.63;;;2.42;;
11839;SDS011;5979;50.800;4.904;2022-08-01T02:03:11;3.70;;;2.72;;
11839;SDS011;5979;50.800;4.904;2022-08-01T02:05:37;3.10;;;2.85;;
11839;SDS011;5979;50.800;4.904;2022-08-01T02:08:04;3.08;;;2.85;;
11839;SDS011;5979;50.800;4.904;2022-08-01T02:10:32;3.03;;;2.83;;
11839;SDS011;5979;50.800;4.904;2022-08-01T02:12:59;2.83;;;2.55;;
11839;SDS011;5979;50.800;4.904;2022-08-01T02:15:28;3.40;;;3.17;;
11839;SDS011;5979;50.800;4.904;2022-08-01T02:17:56;3.33;;;3.10;;
11839;SDS011;5979;50.800;4.904;2022-08-01T02:20:22;3.05;;;2.83;;
11839;SDS011;5979;50.800;4.904;2022-08-01T02:22:52;3.25;;;2.95;;
11839;SDS011;5979;50.800;4.904;2022-08-01T02:25:23;2.80;;;2.60;;
11839;SDS011;5979;50.800;4.904;2022-08-01T02:27:57;3.05;;;2.85;;
11839;SDS011;5979;50.800;4.904;2022-08-01T02:30:36;3.53;;;3.20;;
11839;SDS011;5979;50.800;4.904;2022-08-01T02:35:44;3.38;;;3.10;;
11839;SDS011;5979;50.800;4.904;2022-08-01T02:38:13;3.08;;;2.78;;
11839;SDS011;5979;50.800;4.904;2022-08-01T02:40:41;4.05;;;3.20;;
11839;SDS011;5979;50.800;4.904;2022-08-01T02:43:10;3.22;;;2.92;;
11839;SDS011;5979;50.800;4.904;2022-08-01T02:45:45;2.95;;;2.65;;
11839;SDS011;5979;50.800;4.904;2022-08-01T02:48:15;3.15;;;2.95;;
11839;SDS011;5979;50.800;4.904;2022-08-01T02:50:44;2.95;;;2.67;;
11839;SDS011;5979;50.800;4.904;2022-08-01T02:53:13;2.90;;;2.70;;
11839;SDS011;5979;50.800;4.904;2022-08-01T02:55:41;3.40;;;3.13;;
11839;SDS011;5979;50.800;4.904;2022-08-01T02:58:09;3.40;;;3.10;;
11839;SDS011;5979;50.800;4.904;2022-08-01T03:00:39;2.72;;;2.60;;
11839;SDS011;5979;50.800;4.904;2022-08-01T03:03:06;4.22;;;2.95;;
11839;SDS011;5979;50.800;4.904;2022-08-01T03:05:35;3.60;;;2.92;;
11839;SDS011;5979;50.800;4.904;2022-08-01T03:08:01;3.50;;;2.40;;
11839;SDS011;5979;50.800;4.904;2022-08-01T03:10:29;3.17;;;2.97;;
11839;SDS011;5979;50.800;4.904;2022-08-01T03:12:56;3.50;;;3.20;;
11839;SDS011;5979;50.800;4.904;2022-08-01T03:15:24;3.22;;;3.03;;
11839;SDS011;5979;50.800;4.904;2022-08-01T03:17:52;2.80;;;2.60;;
11839;SDS011;5979;50.800;4.904;2022-08-01T03:20:21;3.00;;;2.70;;
11839;SDS011;5979;50.800;4.904;2022-08-01T03:22:49;3.08;;;2.78;;
11839;SDS011;5979;50.800;4.904;2022-08-01T03:25:17;3.22;;;2.92;;
11839;SDS011;5979;50.800;4.904;2022-08-01T03:27:45;5.10;;;3.22;;
11839;SDS011;5979;50.800;4.904;2022-08-01T03:30:16;3.60;;;3.03;;
11839;SDS011;5979;50.800;4.904;2022-08-01T03:32:42;2.95;;;2.75;;
11839;SDS011;5979;50.800;4.904;2022-08-01T03:35:08;3.45;;;3.13;;
11839;SDS011;5979;50.800;4.904;2022-08-01T03:37:36;3.25;;;2.95;;
11839;SDS011;5979;50.800;4.904;2022-08-01T03:40:18;2.85;;;2.65;;
11839;SDS011;5979;50.800;4.904;2022-08-01T03:42:49;3.13;;;2.92;;
11839;SDS011;5979;50.800;4.904;2022-08-01T03:45:19;3.38;;;3.17;;
11839;SDS011;5979;50.800;4.904;2022-08-01T03:47:48;3.22;;;2.83;;
11839;SDS011;5979;50.800;4.904;2022-08-01T03:50:21;6.85;;;2.88;;
11839;SDS011;5979;50.800;4.904;2022-08-01T03:52:49;3.10;;;2.80;;
11839;SDS011;5979;50.800;4.904;2022-08-01T03:55:16;3.97;;;3.22;;
11839;SDS011;5979;50.800;4.904;2022-08-01T03:57:45;3.40;;;3.13;;
11839;SDS011;5979;50.800;4.904;2022-08-01T04:00:12;3.88;;;3.47;;
11839;SDS011;5979;50.800;4.904;2022-08-01T04:02:38;3.78;;;3.47;;
11839;SDS011;5979;50.800;4.904;2022-08-01T04:05:04;3.67;;;3.38;;
11839;SDS011;5979;50.800;4.904;2022-08-01T04:07:31;4.60;;;4.30;;
11839;SDS011;5979;50.800;4.904;2022-08-01T04:09:58;7.50;;;4.97;;
11839;SDS011;5979;50.800;4.904;2022-08-01T04:12:24;5.25;;;4.38;;
11839;SDS011;5979;50.800;4.904;2022-08-01T04:14:49;6.70;;;4.93;;
11839;SDS011;5979;50.800;4.904;2022-08-01T04:17:16;6.35;;;5.75;;
11839;SDS011;5979;50.800;4.904;2022-08-01T04:19:42;6.65;;;5.53;;
11839;SDS011;5979;50.800;4.904;2022-08-01T04:22:09;5.68;;;5.13;;
11839;SDS011;5979;50.800;4.904;2022-08-01T04:24:36;7.32;;;6.35;;
11839;SDS011;5979;50.800;4.904;2022-08-01T04:27:04;7.70;;;5.90;;
11839;SDS011;5979;50.800;4.904;2022-08-01T04:29:34;9.63;;;7.00;;
11839;SDS011;5979;50.800;4.904;2022-08-01T04:32:03;8.88;;;6.22;;
11839;SDS011;5979;50.800;4.904;2022-08-01T04:34:31;8.23;;;6.38;;
11839;SDS011;5979;50.800;4.904;2022-08-01T04:36:58;10.18;;;6.25;;
11839;SDS011;5979;50.800;4.904;2022-08-01T04:39:26;8.07;;;6.65;;
11839;SDS011;5979;50.800;4.904;2022-08-01T04:41:53;8.93;;;7.07;;
11839;SDS011;5979;50.800;4.904;2022-08-01T04:44:23;8.57;;;7.07;;
11839;SDS011;5979;50.800;4.904;2022-08-01T04:46:49;8.98;;;7.57;;
11839;SDS011;5979;50.800;4.904;2022-08-01T04:49:19;8.50;;;6.47;;
11839;SDS011;5979;50.800;4.904;2022-08-01T04:51:50;9.65;;;7.97;;
11839;SDS011;5979;50.800;4.904;2022-08-01T04:54:33;9.07;;;7.75;;
11839;SDS011;5979;50.800;4.904;2022-08-01T04:57:01;13.35;;;8.27;;
11839;SDS011;5979;50.800;4.904;2022-08-01T04:59:28;9.23;;;7.78;;
11839;SDS011;5979;50.800;4.904;2022-08-01T05:02:13;8.98;;;7.88;;
11839;SDS011;5979;50.800;4.904;2022-08-01T05:04:43;10.05;;;8.52;;
11839;SDS011;5979;50.800;4.904;2022-08-01T05:07:10;11.50;;;8.60;;
11839;SDS011;5979;50.800;4.904;2022-08-01T05:09:37;11.48;;;8.00;;
11839;SDS011;5979;50.800;4.904;2022-08-01T05:12:04;10.27;;;7.88;;
11839;SDS011;5979;50.800;4.904;2022-08-01T05:14:31;11.50;;;8.57;;
11839;SDS011;5979;50.800;4.904;2022-08-01T05:17:01;8.38;;;7.47;;
11839;SDS011;5979;50.800;4.904;2022-08-01T05:19:29;9.40;;;7.85;;
11839;SDS011;5979;50.800;4.904;2022-08-01T05:21:57;10.70;;;8.13;;
11839;SDS011;5979;50.800;4.904;2022-08-01T05:24:23;11.52;;;8.43;;
11839;SDS011;5979;50.800;4.904;2022-08-01T05:26:49;11.07;;;8.32;;
11839;SDS011;5979;50.800;4.904;2022-08-01T05:29:15;10.02;;;7.82;;
11839;SDS011;5979;50.800;4.904;2022-08-01T05:31:40;12.00;;;8.70;;
11839;SDS011;5979;50.800;4.904;2022-08-01T05:34:06;9.98;;;8.55;;
11839;SDS011;5979;50.800;4.904;2022-08-01T05:36:32;8.68;;;7.63;;
11839;SDS011;5979;50.800;4.904;2022-08-01T05:38:57;9.73;;;7.72;;
11839;SDS011;5979;50.800;4.904;2022-08-01T05:41:23;8.52;;;7.45;;
11839;SDS011;5979;50.800;4.904;2022-08-01T05:43:49;10.48;;;7.45;;
11839;SDS011;5979;50.800;4.904;2022-08-01T05:46:14;11.15;;;8.63;;
11839;SDS011;5979;50.800;4.904;2022-08-01T05:48:40;10.25;;;8.55;;
11839;SDS011;5979;50.800;4.904;2022-08-01T05:51:06;8.93;;;6.85;;
11839;SDS011;5979;50.800;4.904;2022-08-01T05:53:31;8.00;;;7.20;;
11839;SDS011;5979;50.800;4.904;2022-08-01T05:55:59;8.32;;;7.50;;
11839;SDS011;5979;50.800;4.904;2022-08-01T05:58:26;9.70;;;8.68;;
11839;SDS011;5979;50.800;4.904;2022-08-01T06:00:52;9.65;;;7.75;;
11839;SDS011;5979;50.800;4.904;2022-08-01T06:03:18;8.07;;;7.22;;
11839;SDS011;5979;50.800;4.904;2022-08-01T06:05:43;11.27;;;8.25;;
11839;SDS011;5979;50.800;4.904;2022-08-01T06:08:09;11.70;;;8.77;;
11839;SDS011;5979;50.800;4.904;2022-08-01T06:10:35;9.73;;;8.77;;
11839;SDS011;5979;50.800;4.904;2022-08-01T06:13:01;9.68;;;7.90;;
11839;SDS011;5979;50.800;4.904;2022-08-01T06:15:28;10.35;;;8.40;;
11839;SDS011;5979;50.800;4.904;2022-08-01T06:17:55;12.27;;;9.35;;
11839;SDS011;5979;50.800;4.904;2022-08-01T06:20:20;9.82;;;8.43;;
11839;SDS011;5979;50.800;4.904;2022-08-01T06:22:46;10.23;;;9.10;;
11839;SDS011;5979;50.800;4.904;2022-08-01T06:25:12;10.18;;;8.88;;
11839;SDS011;5979;50.800;4.904;2022-08-01T06:27:37;11.27;;;8.98;;
11839;SDS011;5979;50.800;4.904;2022-08-01T06:30:04;12.00;;;9.38;;
11839;SDS011;5979;50.800;4.904;2022-08-01T06:32:30;16.27;;;9.73;;
11839;SDS011;5979;50.800;4.904;2022-08-01T06:34:56;9.13;;;8.13;;
11839;SDS011;5979;50.800;4.904;2022-08-01T06:37:22;12.50;;;9.48;;
11839;SDS011;5979;50.800;4.904;2022-08-01T06:39:48;10.93;;;9.75;;
11839;SDS011;5979;50.800;4.904;2022-08-01T06:42:14;9.60;;;8.48;;
11839;SDS011;5979;50.800;4.904;2022-08-01T06:44:40;11.60;;;9.27;;
11839;SDS011;5979;50.800;4.904;2022-08-01T06:47:06;9.52;;;8.32;;
11839;SDS011;5979;50.800;4.904;2022-08-01T06:49:31;8.68;;;7.72;;
11839;SDS011;5979;50.800;4.904;2022-08-01T06:51:57;10.07;;;8.68;;
11839;SDS011;5979;50.800;4.904;2022-08-01T06:54:23;9.63;;;8.65;;
11839;SDS011;5979;50.800;4.904;2022-08-01T06:56:48;9.75;;;8.80;;
11839;SDS011;5979;50.800;4.904;2022-08-01T06:59:14;12.45;;;9.75;;
11839;SDS011;5979;50.800;4.904;2022-08-01T07:01:40;11.32;;;9.57;;
11839;SDS011;5979;50.800;4.904;2022-08-01T07:04:06;11.55;;;10.25;;
11839;SDS011;5979;50.800;4.904;2022-08-01T07:06:32;9.70;;;8.80;;
11839;SDS011;5979;50.800;4.904;2022-08-01T07:08:57;11.38;;;8.52;;
11839;SDS011;5979;50.800;4.904;2022-08-01T07:11:25;10.60;;;8.93;;
11839;SDS011;5979;50.800;4.904;2022-08-01T07:13:50;8.25;;;7.45;;
11839;SDS011;5979;50.800;4.904;2022-08-01T07:16:16;8.70;;;7.63;;
11839;SDS011;5979;50.800;4.904;2022-08-01T07:18:42;8.95;;;8.00;;
11839;SDS011;5979;50.800;4.904;2022-08-01T07:21:08;8.38;;;7.57;;
11839;SDS011;5979;50.800;4.904;2022-08-01T07:23:34;10.10;;;7.47;;
11839;SDS011;5979;50.800;4.904;2022-08-01T07:26:00;7.85;;;6.85;;
11839;SDS011;5979;50.800;4.904;2022-08-01T07:28:29;7.55;;;6.85;;
11839;SDS011;5979;50.800;4.904;2022-08-01T07:30:55;6.55;;;6.00;;
11839;SDS011;5979;50.800;4.904;2022-08-01T07:33:21;8.00;;;7.07;;
11839;SDS011;5979;50.800;4.904;2022-08-01T07:35:47;7.47;;;6.80;;
11839;SDS011;5979;50.800;4.904;2022-08-01T07:38:13;8.52;;;6.85;;
11839;SDS011;5979;50.800;4.904;2022-08-01T07:40:41;7.75;;;6.93;;
11839;SDS011;5979;50.800;4.904;2022-08-01T07:43:08;7.20;;;6.60;;
11839;SDS011;5979;50.800;4.904;2022-08-01T07:45:33;7.93;;;6.68;;
11839;SDS011;5979;50.800;4.904;2022-08-01T07:48:03;8.57;;;7.07;;
11839;SDS011;5979;50.800;4.904;2022-08-01T07:50:29;7.28;;;6.65;;
11839;SDS011;5979;50.800;4.904;2022-08-01T07:52:55;8.27;;;7.15;;
11839;SDS011;5979;50.800;4.904;2022-08-01T07:55:20;8.38;;;7.38;;
11839;SDS011;5979;50.800;4.904;2022-08-01T07:57:46;7.95;;;7.18;;
11839;SDS011;5979;50.800;4.904;2022-08-01T08:00:12;8.55;;;7.85;;
11839;SDS011;5979;50.800;4.904;2022-08-01T08:02:38;9.73;;;7.38;;
11839;SDS011;5979;50.800;4.904;2022-08-01T08:05:04;10.43;;;9.35;;
11839;SDS011;5979;50.800;4.904;2022-08-01T08:07:31;9.63;;;8.75;;
11839;SDS011;5979;50.800;4.904;2022-08-01T08:09:57;7.65;;;7.05;;
11839;SDS011;5979;50.800;4.904;2022-08-01T08:12:23;10.30;;;9.30;;
11839;SDS011;5979;50.800;4.904;2022-08-01T08:14:48;9.85;;;8.68;;
11839;SDS011;5979;50.800;4.904;2022-08-01T08:17:14;7.85;;;7.05;;
11839;SDS011;5979;50.800;4.904;2022-08-01T08:19:40;7.32;;;6.72;;
11839;SDS011;5979;50.800;4.904;2022-08-01T08:22:06;7.70;;;7.10;;
11839;SDS011;5979;50.800;4.904;2022-08-01T08:24:33;8.15;;;7.45;;
11839;SDS011;5979;50.800;4.904;2022-08-01T08:26:59;7.75;;;7.05;;
11839;SDS011;5979;50.800;4.904;2022-08-01T08:29:27;8.65;;;7.75;;
11839;SDS011;5979;50.800;4.904;2022-08-01T08:31:55;7.93;;;7.18;;
11839;SDS011;5979;50.800;4.904;2022-08-01T08:34:21;8.95;;;8.07;;
11839;SDS011;5979;50.800;4.904;2022-08-01T08:36:47;8.88;;;8.18;;
11839;SDS011;5979;50.800;4.904;2022-08-01T08:39:14;8.57;;;7.68;;
11839;SDS011;5979;50.800;4.904;2022-08-01T08:41:39;7.30;;;6.53;;
11839;SDS011;5979;50.800;4.904;2022-08-01T08:44:06;5.95;;;5.47;;
11839;SDS011;5979;50.800;4.904;2022-08-01T08:46:33;6.85;;;6.25;;
11839;SDS011;5979;50.800;4.904;2022-08-01T08:49:04;6.60;;;6.05;;
11839;SDS011;5979;50.800;4.904;2022-08-01T08:51:32;6.07;;;5.57;;
11839;SDS011;5979;50.800;4.904;2022-08-01T08:54:03;5.55;;;5.10;;
11839;SDS011;5979;50.800;4.904;2022-08-01T08:56:30;4.70;;;4.30;;
11839;SDS011;5979;50.800;4.904;2022-08-01T08:58:59;5.45;;;4.82;;
11839;SDS011;5979;50.800;4.904;2022-08-01T09:01:25;6.00;;;5.38;;
11839;SDS011;5979;50.800;4.904;2022-08-01T09:03:51;5.90;;;5.47;;
11839;SDS011;5979;50.800;4.904;2022-08-01T09:06:18;5.53;;;5.03;;
11839;SDS011;5979;50.800;4.904;2022-08-01T09:08:43;5.88;;;5.45;;
11839;SDS011;5979;50.800;4.904;2022-08-01T09:11:09;5.20;;;4.88;;
11839;SDS011;5979;50.800;4.904;2022-08-01T09:13:35;5.40;;;5.07;;
11839;SDS011;5979;50.800;4.904;2022-08-01T09:16:00;6.18;;;5.28;;
11839;SDS011;5979;50.800;4.904;2022-08-01T09:21:11;5.07;;;4.75;;
11839;SDS011;5979;50.800;4.904;2022-08-01T09:23:46;5.35;;;4.20;;
11839;SDS011;5979;50.800;4.904;2022-08-01T09:26:15;4.35;;;4.13;;
11839;SDS011;5979;50.800;4.904;2022-08-01T09:28:43;3.88;;;3.67;;
11839;SDS011;5979;50.800;4.904;2022-08-01T09:31:11;4.07;;;3.70;;
11839;SDS011;5979;50.800;4.904;2022-08-01T09:33:52;3.65;;;3.42;;
11839;SDS011;5979;50.800;4.904;2022-08-01T09:36:22;3.17;;;3.08;;
11839;SDS011;5979;50.800;4.904;2022-08-01T09:39:11;3.10;;;2.95;;
11839;SDS011;5979;50.800;4.904;2022-08-01T09:41:38;2.65;;;2.45;;
11839;SDS011;5979;50.800;4.904;2022-08-01T09:44:04;3.05;;;2.80;;
11839;SDS011;5979;50.800;4.904;2022-08-01T09:46:30;2.40;;;2.30;;
11839;SDS011;5979;50.800;4.904;2022-08-01T09:48:56;2.65;;;2.53;;
11839;SDS011;5979;50.800;4.904;2022-08-01T09:51:27;2.28;;;2.22;;
11839;SDS011;5979;50.800;4.904;2022-08-01T09:53:54;2.50;;;2.40;;
11839;SDS011;5979;50.800;4.904;2022-08-01T09:56:24;2.17;;;2.08;;
11839;SDS011;5979;50.800;4.904;2022-08-01T09:58:57;2.55;;;2.35;;
11839;SDS011;5979;50.800;4.904;2022-08-01T10:01:24;2.08;;;2.08;;
11839;SDS011;5979;50.800;4.904;2022-08-01T10:04:23;2.65;;;2.55;;
11839;SDS011;5979;50.800;4.904;2022-08-01T10:06:44;2.13;;;2.13;;
11839;SDS011;5979;50.800;4.904;2022-08-01T10:09:14;3.28;;;2.78;;
11839;SDS011;5979;50.800;4.904;2022-08-01T10:11:50;3.00;;;2.75;;
11839;SDS011;5979;50.800;4.904;2022-08-01T10:14:16;2.63;;;2.53;;
11839;SDS011;5979;50.800;4.904;2022-08-01T10:16:45;2.85;;;2.60;;
11839;SDS011;5979;50.800;4.904;2022-08-01T10:19:12;2.40;;;2.30;;
11839;SDS011;5979;50.800;4.904;2022-08-01T10:21:39;2.83;;;2.63;;
11839;SDS011;5979;50.800;4.904;2022-08-01T10:24:05;2.85;;;2.65;;
11839;SDS011;5979;50.800;4.904;2022-08-01T10:26:34;3.28;;;2.28;;
11839;SDS011;5979;50.800;4.904;2022-08-01T10:29:02;2.60;;;2.25;;
11839;SDS011;5979;50.800;4.904;2022-08-01T10:31:28;2.72;;;2.53;;
11839;SDS011;5979;50.800;4.904;2022-08-01T10:33:57;2.67;;;2.47;;
11839;SDS011;5979;50.800;4.904;2022-08-01T10:36:24;2.28;;;2.17;;
11839;SDS011;5979;50.800;4.904;2022-08-01T10:38:50;2.63;;;2.53;;
11839;SDS011;5979;50.800;4.904;2022-08-01T10:41:18;2.17;;;2.08;;
11839;SDS011;5979;50.800;4.904;2022-08-01T10:43:44;2.78;;;2.15;;
11839;SDS011;5979;50.800;4.904;2022-08-01T10:46:09;3.72;;;2.25;;
11839;SDS011;5979;50.800;4.904;2022-08-01T10:48:55;3.30;;;3.00;;
11839;SDS011;5979;50.800;4.904;2022-08-01T10:51:26;2.72;;;2.63;;
11839;SDS011;5979;50.800;4.904;2022-08-01T10:53:53;2.50;;;2.40;;
11839;SDS011;5979;50.800;4.904;2022-08-01T10:56:20;2.75;;;2.55;;
11839;SDS011;5979;50.800;4.904;2022-08-01T10:58:47;2.38;;;2.28;;
11839;SDS011;5979;50.800;4.904;2022-08-01T11:03:43;2.42;;;2.22;;
11839;SDS011;5979;50.800;4.904;2022-08-01T11:08:58;2.83;;;2.63;;
11839;SDS011;5979;50.800;4.904;2022-08-01T11:11:58;2.78;;;2.67;;
11839;SDS011;5979;50.800;4.904;2022-08-01T11:14:28;2.63;;;2.53;;
11839;SDS011;5979;50.800;4.904;2022-08-01T11:16:54;3.67;;;3.38;;
11839;SDS011;5979;50.800;4.904;2022-08-01T11:19:21;3.38;;;3.17;;
11839;SDS011;5979;50.800;4.904;2022-08-01T11:27:29;2.50;;;2.30;;
11839;SDS011;5979;50.800;4.904;2022-08-01T11:32:34;3.22;;;2.40;;
11839;SDS011;5979;50.800;4.904;2022-08-01T11:35:11;2.33;;;2.20;;
11839;SDS011;5979;50.800;4.904;2022-08-01T11:37:36;2.20;;;2.10;;
11839;SDS011;5979;50.800;4.904;2022-08-01T11:40:25;2.17;;;2.08;;
11839;SDS011;5979;50.800;4.904;2022-08-01T11:43:16;2.22;;;2.05;;
11839;SDS011;5979;50.800;4.904;2022-08-01T11:45:52;1.98;;;1.88;;
11839;SDS011;5979;50.800;4.904;2022-08-01T11:48:29;1.65;;;1.65;;
11839;SDS011;5979;50.800;4.904;2022-08-01T11:50:55;2.22;;;2.10;;
11839;SDS011;5979;50.800;4.904;2022-08-01T11:53:21;2.08;;;1.98;;
11839;SDS011;5979;50.800;4.904;2022-08-01T11:55:48;1.90;;;1.90;;
11839;SDS011;5979;50.800;4.904;2022-08-01T11:58:16;2.25;;;2.15;;
11839;SDS011;5979;50.800;4.904;2022-08-01T12:00:52;2.22;;;2.13;;
11839;SDS011;5979;50.800;4.904;2022-08-01T12:03:31;2.22;;;2.13;;
11839;SDS011;5979;50.800;4.904;2022-08-01T12:05:57;2.22;;;2.03;;
11839;SDS011;5979;50.800;4.904;2022-08-01T12:08:27;2.33;;;2.22;;
11839;SDS011;5979;50.800;4.904;2022-08-01T12:10:55;3.25;;;2.10;;
11839;SDS011;5979;50.800;4.904;2022-08-01T12:13:21;2.47;;;2.10;;
11839;SDS011;5979;50.800;4.904;2022-08-01T12:15:47;2.13;;;2.03;;
11839;SDS011;5979;50.800;4.904;2022-08-01T12:18:15;2.22;;;2.03;;
11839;SDS011;5979;50.800;4.904;2022-08-01T12:20:42;2.17;;;2.08;;
11839;SDS011;5979;50.800;4.904;2022-08-01T12:23:10;2.25;;;2.10;;
11839;SDS011;5979;50.800;4.904;2022-08-01T12:25:41;2.08;;;2.03;;
11839;SDS011;5979;50.800;4.904;2022-08-01T12:28:10;2.50;;;2.30;;
11839;SDS011;5979;50.800;4.904;2022-08-01T12:30:39;1.90;;;1.90;;
11839;SDS011;5979;50.800;4.904;2022-08-01T12:33:06;2.03;;;2.00;;
11839;SDS011;5979;50.800;4.904;2022-08-01T12:35:34;4.07;;;2.35;;
11839;SDS011;5979;50.800;4.904;2022-08-01T12:38:22;2.08;;;1.98;;
11839;SDS011;5979;50.800;4.904;2022-08-01T12:40:49;3.05;;;2.40;;
11839;SDS011;5979;50.800;4.904;2022-08-01T12:43:19;2.25;;;2.15;;
11839;SDS011;5979;50.800;4.904;2022-08-01T12:45:46;2.50;;;2.28;;
11839;SDS011;5979;50.800;4.904;2022-08-01T12:48:15;2.20;;;2.10;;
11839;SDS011;5979;50.800;4.904;2022-08-01T12:50:43;2.08;;;1.98;;
11839;SDS011;5979;50.800;4.904;2022-08-01T12:53:09;2.03;;;1.92;;
11839;SDS011;5979;50.800;4.904;2022-08-01T12:55:45;2.00;;;1.90;;
11839;SDS011;5979;50.800;4.904;2022-08-01T12:58:15;2.03;;;1.92;;
11839;SDS011;5979;50.800;4.904;2022-08-01T13:00:43;2.03;;;2.00;;
11839;SDS011;5979;50.800;4.904;2022-08-01T13:03:10;2.00;;;1.92;;
11839;SDS011;5979;50.800;4.904;2022-08-01T13:05:52;4.30;;;2.30;;
11839;SDS011;5979;50.800;4.904;2022-08-01T13:10:46;2.58;;;2.38;;
11839;SDS011;5979;50.800;4.904;2022-08-01T13:13:14;2.75;;;1.98;;
11839;SDS011;5979;50.800;4.904;2022-08-01T13:15:43;2.95;;;1.98;;
11839;SDS011;5979;50.800;4.904;2022-08-01T13:18:23;2.00;;;1.90;;
11839;SDS011;5979;50.800;4.904;2022-08-01T13:20:49;2.05;;;1.95;;
11839;SDS011;5979;50.800;4.904;2022-08-01T13:23:16;1.50;;;1.42;;
11839;SDS011;5979;50.800;4.904;2022-08-01T13:25:53;2.97;;;1.92;;
11839;SDS011;5979;50.800;4.904;2022-08-01T13:28:27;2.42;;;1.50;;
11839;SDS011;5979;50.800;4.904;2022-08-01T13:31:00;1.60;;;1.50;;
11839;SDS011;5979;50.800;4.904;2022-08-01T13:33:28;3.15;;;1.70;;
11839;SDS011;5979;50.800;4.904;2022-08-01T13:36:12;2.03;;;1.67;;
11839;SDS011;5979;50.800;4.904;2022-08-01T13:38:39;1.60;;;1.50;;
11839;SDS011;5979;50.800;4.904;2022-08-01T13:41:23;2.88;;;1.60;;
11839;SDS011;5979;50.800;4.904;2022-08-01T13:43:49;1.60;;;1.50;;
11839;SDS011;5979;50.800;4.904;2022-08-01T13:46:15;1.40;;;1.40;;
11839;SDS011;5979;50.800;4.904;2022-08-01T13:48:41;1.75;;;1.40;;
11839;SDS011;5979;50.800;4.904;2022-08-01T13:51:07;1.30;;;1.30;;
11839;SDS011;5979;50.800;4.904;2022-08-01T13:53:33;1.23;;;1.23;;
11839;SDS011;5979;50.800;4.904;2022-08-01T13:55:58;2.78;;;1.27;;
11839;SDS011;5979;50.800;4.904;2022-08-01T13:58:24;2.13;;;1.40;;
11839;SDS011;5979;50.800;4.904;2022-08-01T14:00:50;2.10;;;1.40;;
11839;SDS011;5979;50.800;4.904;2022-08-01T14:03:15;1.48;;;1.38;;
11839;SDS011;5979;50.800;4.904;2022-08-01T14:05:41;1.98;;;1.25;;
11839;SDS011;5979;50.800;4.904;2022-08-01T14:08:10;2.60;;;1.40;;
11839;SDS011;5979;50.800;4.904;2022-08-01T14:10:36;1.40;;;1.30;;
11839;SDS011;5979;50.800;4.904;2022-08-01T14:13:02;2.97;;;1.20;;
11839;SDS011;5979;50.800;4.904;2022-08-01T14:15:28;1.60;;;1.50;;
11839;SDS011;5979;50.800;4.904;2022-08-01T14:17:55;1.40;;;1.30;;
11839;SDS011;5979;50.800;4.904;2022-08-01T14:20:21;1.55;;;1.45;;
11839;SDS011;5979;50.800;4.904;2022-08-01T14:22:46;2.97;;;1.85;;
11839;SDS011;5979;50.800;4.904;2022-08-01T14:25:12;1.75;;;1.20;;
11839;SDS011;5979;50.800;4.904;2022-08-01T14:27:38;1.30;;;1.30;;
11839;SDS011;5979;50.800;4.904;2022-08-01T14:30:05;2.08;;;1.48;;
11839;SDS011;5979;50.800;4.904;2022-08-01T14:32:31;4.13;;;1.60;;
11839;SDS011;5979;50.800;4.904;2022-08-01T14:34:58;1.67;;;1.48;;
11839;SDS011;5979;50.800;4.904;2022-08-01T14:37:24;1.30;;;1.30;;
11839;SDS011;5979;50.800;4.904;2022-08-01T14:39:50;1.40;;;1.35;;
11839;SDS011;5979;50.800;4.904;2022-08-01T14:42:16;2.15;;;1.58;;
11839;SDS011;5979;50.800;4.904;2022-08-01T14:44:41;1.33;;;1.20;;
11839;SDS011;5979;50.800;4.904;2022-08-01T14:47:07;1.70;;;1.60;;
11839;SDS011;5979;50.800;4.904;2022-08-01T14:49:33;1.52;;;1.35;;
11839;SDS011;5979;50.800;4.904;2022-08-01T14:51:58;1.40;;;1.20;;
11839;SDS011;5979;50.800;4.904;2022-08-01T14:54:24;1.63;;;1.50;;
11839;SDS011;5979;50.800;4.904;2022-08-01T14:56:50;1.13;;;1.02;;
11839;SDS011;5979;50.800;4.904;2022-08-01T14:59:17;2.10;;;1.38;;
11839;SDS011;5979;50.800;4.904;2022-08-01T15:01:43;1.48;;;1.40;;
11839;SDS011;5979;50.800;4.904;2022-08-01T15:04:09;3.28;;;1.40;;
11839;SDS011;5979;50.800;4.904;2022-08-01T15:06:35;2.17;;;1.60;;
11839;SDS011;5979;50.800;4.904;2022-08-01T15:09:01;2.70;;;1.42;;
11839;SDS011;5979;50.800;4.904;2022-08-01T15:11:27;1.38;;;1.13;;
11839;SDS011;5979;50.800;4.904;2022-08-01T15:13:52;1.35;;;1.35;;
11839;SDS011;5979;50.800;4.904;2022-08-01T15:16:37;1.30;;;1.20;;
11839;SDS011;5979;50.800;4.904;2022-08-01T15:19:03;1.55;;;1.45;;
11839;SDS011;5979;50.800;4.904;2022-08-01T15:21:29;1.58;;;1.20;;
11839;SDS011;5979;50.800;4.904;2022-08-01T15:23:54;3.20;;;1.33;;
11839;SDS011;5979;50.800;4.904;2022-08-01T15:26:20;1.65;;;1.27;;
11839;SDS011;5979;50.800;4.904;2022-08-01T15:28:46;1.30;;;1.30;;
11839;SDS011;5979;50.800;4.904;2022-08-01T15:31:11;1.40;;;1.30;;
11839;SDS011;5979;50.800;4.904;2022-08-01T15:33:37;1.40;;;1.30;;
11839;SDS011;5979;50.800;4.904;2022-08-01T15:36:03;1.40;;;1.30;;
11839;SDS011;5979;50.800;4.904;2022-08-01T15:38:29;1.67;;;1.50;;